Aviation Digital Data Service (ADDS)

Output produced by METARs form (1911 UTC 25 June 2017)
found at http://www.aviationweather.gov/adds/metars/
 
ELLX 251850Z 28009KT 9999 FEW038 BKN059 21/13 Q1015 NOSIG
TAF ELLX 251700Z 2518/2624 27015KT 9999 SCT035 
     BECMG 2518/2521 25005KT 
     BECMG 2612/2615 02005KT